Terminal Aerodrome Forecast
Issued by NWS

Home | Current Version | Previous Version | Text Only | Print | Product List | Glossary On
Versions: 1 2 3 4 5 6 7 8 9 10 11 12 13 14 15 16 17 18 19 20 21 22 23 24 25
000
FTUS45 KGJT 281730
TAFASE
TAF
KASE 281730Z 2818/2918 14005KT P6SM SCT060 BKN120
     FM282000 02003KT P6SM VCTS SCT060CB BKN120
      TEMPO 2822/2902 VRB15G25KT -TSRA SCT035 BKN050CB
     FM290200 16007KT P6SM VCSH OVC100
     FM290600 21005KT P6SM VCSH BKN100
     FM291200 VRB04KT P6SM VCSH BKN100=

USA.gov is the U.S. government's official web portal to all federal, state and local government web resources and services.